Time;durP1;ratioP1;P1;durP2;ratioP2;P2;SDS_P1;SDS_P2;PMS_P1;PMS_P2;Temp;Humidity;BMP_temperature;BMP_pressure;BME280_temperature;BME280_humidity;BME280_pressure;Samples;Min_cycle;Max_cycle;Signal;HPM_P1;HPM_P2
2023/02/18 00:01:14;;;;;;;13.37;1.90;;;;;;;-145.18;100.00;60484.78;5072793;28;20016;-70
2023/02/18 00:03:40;;;;;;;7.00;1.50;;;;;;;-145.18;100.00;60484.78;5075354;28;20373;-70
2023/02/18 00:06:14;;;;;;;10.67;2.03;;;;;;;-145.18;100.00;60484.78;5074362;28;20036;-72
2023/02/18 00:08:42;;;;;;;11.77;2.10;;;;;;;-145.18;100.00;60484.78;5072215;28;20020;-71
2023/02/18 00:11:08;;;;;;;9.40;1.80;;;;;;;-145.18;100.00;60484.78;5070968;28;20033;-70
2023/02/18 00:13:37;;;;;;;11.60;1.70;;;;;;;-145.18;100.00;60484.78;5072052;28;20035;-72
2023/02/18 00:16:10;;;;;;;9.23;1.63;;;;;;;-145.18;100.00;60484.78;5051348;28;20033;-72
2023/02/18 00:18:36;;;;;;;8.70;1.90;;;;;;;-145.18;100.00;60484.78;5055460;28;20498;-68
2023/02/18 00:21:06;;;;;;;13.07;2.07;;;;;;;-145.18;100.00;60484.78;5058688;28;20115;-69
2023/02/18 00:23:32;;;;;;;16.60;1.70;;;;;;;-145.18;100.00;60484.78;5073795;28;20448;-69
2023/02/18 00:26:07;;;;;;;14.03;2.10;;;;;;;-145.18;100.00;60484.78;5073043;28;20471;-70
2023/02/18 00:28:34;;;;;;;9.00;1.87;;;;;;;-145.18;100.00;60484.78;5072768;28;20028;-71
2023/02/18 00:31:07;;;;;;;12.40;1.87;;;;;;;-145.18;100.00;60484.78;5070527;28;20027;-70
2023/02/18 00:33:33;;;;;;;11.63;2.20;;;;;;;-145.18;100.00;60484.78;5055043;28;20090;-70
2023/02/18 00:36:07;;;;;;;11.30;1.63;;;;;;;-145.18;100.00;60484.78;5069919;28;20107;-72
2023/02/18 00:38:38;;;;;;;15.00;2.47;;;;;;;-145.18;100.00;60484.78;5073040;28;20073;-71
2023/02/18 00:41:04;;;;;;;11.75;2.15;;;;;;;-145.18;100.00;60484.78;5075367;28;20150;-70
2023/02/18 00:43:30;;;;;;;11.90;1.90;;;;;;;-145.18;100.00;60484.78;5074921;28;20477;-70
2023/02/18 00:45:55;;;;;;;7.23;1.60;;;;;;;-145.18;100.00;60484.78;5073922;28;20052;-71
2023/02/18 00:48:23;;;;;;;13.17;2.20;;;;;;;-145.18;100.00;60484.78;5074149;28;20027;-70
2023/02/18 00:50:49;;;;;;;9.17;1.43;;;;;;;-145.18;100.00;60484.78;5068934;28;20028;-70
2023/02/18 00:53:14;;;;;;;9.17;1.70;;;;;;;-145.18;100.00;60484.78;5055502;28;20042;-70
2023/02/18 00:55:42;;;;;;;13.70;2.33;;;;;;;-145.18;100.00;60484.78;5055678;28;20036;-70
2023/02/18 00:58:08;;;;;;;7.67;1.37;;;;;;;-145.18;100.00;60484.78;5075261;28;20024;-70
2023/02/18 01:00:33;;;;;;;10.40;1.43;;;;;;;-145.18;100.00;60484.78;5074215;28;20024;-71
2023/02/18 01:03:05;;;;;;;8.93;1.70;;;;;;;-145.18;100.00;60484.78;5074584;28;20111;-71
2023/02/18 01:05:33;;;;;;;9.93;1.85;;;;;;;-145.18;100.00;60484.78;5067376;28;20037;-71
2023/02/18 01:08:05;;;;;;;11.30;1.77;;;;;;;-145.18;100.00;60484.78;5072634;28;20035;-71
2023/02/18 01:10:31;;;;;;;12.30;1.80;;;;;;;-145.18;100.00;60484.78;5070807;28;20112;-71
2023/02/18 01:12:57;;;;;;;11.27;1.77;;;;;;;-145.18;100.00;60484.78;5072214;28;20107;-70
2023/02/18 01:15:23;;;;;;;13.80;1.97;;;;;;;-145.18;100.00;60484.78;5066979;28;20504;-72
2023/02/18 01:17:50;;;;;;;10.57;1.80;;;;;;;-145.18;100.00;60484.78;5069562;28;20527;-71
2023/02/18 01:20:22;;;;;;;13.23;2.00;;;;;;;-145.18;100.00;60484.78;5073200;28;20028;-71
2023/02/18 01:22:48;;;;;;;;;;;;;;;-145.18;100.00;60484.78;5072423;28;20060;-71
2023/02/18 01:25:14;;;;;;;8.80;1.70;;;;;;;-145.18;100.00;60484.78;5071743;28;20327;-71
2023/02/18 01:27:42;;;;;;;9.60;1.40;;;;;;;-145.18;100.00;60484.78;5073613;28;20037;-71
2023/02/18 01:30:11;;;;;;;12.90;1.80;;;;;;;-145.18;100.00;60484.78;5073689;28;20035;-70
2023/02/18 01:32:39;;;;;;;9.30;1.50;;;;;;;-145.18;100.00;60484.78;5070541;28;20502;-72
2023/02/18 01:35:06;;;;;;;7.70;1.37;;;;;;;-145.18;100.00;60484.78;5060464;28;20017;-69
2023/02/18 01:37:32;;;;;;;8.60;1.97;;;;;;;-145.18;100.00;60484.78;5071371;28;20430;-70
2023/02/18 01:39:58;;;;;;;12.80;1.73;;;;;;;-145.18;100.00;60484.78;5072614;28;20028;-70
2023/02/18 01:42:27;;;;;;;11.77;1.60;;;;;;;-145.18;100.00;60484.78;5072373;28;20032;-70
2023/02/18 01:44:53;;;;;;;8.90;2.07;;;;;;;-145.18;100.00;60484.78;5072567;28;20032;-72
2023/02/18 01:47:19;;;;;;;11.20;1.50;;;;;;;-145.18;100.00;60484.78;5072812;28;20021;-71
2023/02/18 01:49:51;;;;;;;10.57;1.63;;;;;;;-145.18;100.00;60484.78;5071336;28;20075;-70
2023/02/18 01:52:22;;;;;;;12.30;2.10;;;;;;;-145.18;100.00;60484.78;5073159;28;20101;-70
2023/02/18 01:54:54;;;;;;;11.53;1.90;;;;;;;-145.18;100.00;60484.78;5071009;28;20055;-70
2023/02/18 01:57:38;;;;;;;11.77;2.13;;;;;;;-145.18;100.00;60484.78;5073309;28;20484;-71
2023/02/18 02:00:06;;;;;;;8.33;1.70;;;;;;;-145.18;100.00;60484.78;5073359;28;20020;-70
2023/02/18 02:02:36;;;;;;;8.63;1.40;;;;;;;-145.18;100.00;60484.78;5070971;28;20028;-72
2023/02/18 02:05:02;;;;;;;11.03;1.83;;;;;;;-145.18;100.00;60484.78;5081822;22;20048;-63
2023/02/18 02:07:28;;;;;;;17.33;1.93;;;;;;;-145.18;100.00;60484.78;5070419;28;20433;-63
2023/02/18 02:09:57;;;;;;;7.43;1.47;;;;;;;-145.18;100.00;60484.78;5071478;28;20106;-63
2023/02/18 02:12:46;;;;;;;11.43;2.10;;;;;;;-145.18;100.00;60484.78;5067708;28;20128;-63
2023/02/18 02:15:33;;;;;;;15.40;2.40;;;;;;;-145.18;100.00;60484.78;5064627;28;20111;-63
2023/02/18 02:18:11;;;;;;;12.43;2.17;;;;;;;-145.18;100.00;60484.78;5066904;28;20097;-63
2023/02/18 02:21:14;;;;;;;10.77;1.93;;;;;;;-145.18;100.00;60484.78;5067587;28;20043;-63
2023/02/18 02:24:00;;;;;;;13.00;2.30;;;;;;;-145.18;100.00;60484.78;5066980;28;20459;-64
2023/02/18 02:26:49;;;;;;;15.30;2.20;;;;;;;-145.18;100.00;60484.78;5070893;28;20043;-63
2023/02/18 02:29:15;;;;;;;12.47;2.33;;;;;;;-145.18;100.00;60484.78;5072434;28;20539;-63
2023/02/18 02:31:55;;;;;;;9.67;2.03;;;;;;;-145.18;100.00;60484.78;5071803;28;20103;-63
2023/02/18 02:34:39;;;;;;;13.47;1.90;;;;;;;-145.18;100.00;60484.78;5062211;28;20028;-64
2023/02/18 02:37:29;;;;;;;13.07;1.77;;;;;;;-145.18;100.00;60484.78;5067542;28;20032;-63
2023/02/18 02:40:13;;;;;;;9.67;1.70;;;;;;;-145.18;100.00;60484.78;5069141;28;20100;-63
2023/02/18 02:43:16;;;;;;;13.37;2.30;;;;;;;-145.18;100.00;60484.78;5069499;28;20051;-64
2023/02/18 02:46:01;;;;;;;19.77;2.63;;;;;;;-145.18;100.00;60484.78;5071282;28;20040;-63
2023/02/18 02:48:39;;;;;;;10.97;1.97;;;;;;;-145.18;100.00;60484.78;5067497;28;20038;-64
2023/02/18 02:51:16;;;;;;;15.03;2.03;;;;;;;-145.18;100.00;60484.78;5070582;28;20119;-63
2023/02/18 02:53:42;;;;;;;11.77;1.77;;;;;;;-145.18;100.00;60484.78;5070529;28;20028;-64
2023/02/18 02:56:25;;;;;;;15.53;3.33;;;;;;;-145.18;100.00;60484.78;5066828;28;20032;-63
2023/02/18 02:59:01;;;;;;;17.17;3.10;;;;;;;-145.18;100.00;60484.78;5071775;28;20029;-63
2023/02/18 03:01:50;;;;;;;16.07;3.67;;;;;;;-145.18;100.00;60484.78;5071412;28;20479;-63
2023/02/18 03:04:45;;;;;;;14.90;2.90;;;;;;;-145.18;100.00;60484.78;5060363;28;20047;-63
2023/02/18 03:07:40;;;;;;;13.43;2.40;;;;;;;-145.18;100.00;60484.78;5070769;28;20032;-64
2023/02/18 03:10:11;;;;;;;13.80;2.90;;;;;;;-145.18;100.00;60484.78;4980493;28;20507;-63
2023/02/18 03:12:39;;;;;;;16.75;2.65;;;;;;;-145.18;100.00;60484.78;5070909;28;20061;-64
2023/02/18 03:15:17;;;;;;;14.17;2.53;;;;;;;-145.18;100.00;60484.78;5070322;28;20032;-64
2023/02/18 03:18:01;;;;;;;10.00;2.20;;;;;;;-145.18;100.00;60484.78;5071011;28;20020;-65
2023/02/18 03:20:40;;;;;;;14.63;2.10;;;;;;;-145.18;100.00;60484.78;5071786;28;20511;-63
2023/02/18 03:23:16;;;;;;;13.13;2.50;;;;;;;-145.18;100.00;60484.78;5069778;28;20017;-64
2023/02/18 03:25:42;;;;;;;14.63;2.40;;;;;;;-145.18;100.00;60484.78;5070463;28;20475;-64
2023/02/18 03:28:14;;;;;;;13.07;2.50;;;;;;;-145.18;100.00;60484.78;5070065;28;20020;-64
2023/02/18 03:30:48;;;;;;;17.08;2.58;;;;;;;-145.18;100.00;60484.78;5067409;28;20025;-64
2023/02/18 03:33:19;;;;;;;11.10;2.40;;;;;;;-145.18;100.00;60484.78;5071437;28;20485;-63
2023/02/18 03:35:47;;;;;;;15.88;3.13;;;;;;;-145.18;100.00;60484.78;5072377;28;20024;-63
2023/02/18 03:38:21;;;;;;;10.90;2.90;;;;;;;-145.18;100.00;60484.78;5075027;28;20036;-64
2023/02/18 03:40:46;;;;;;;17.57;2.90;;;;;;;-145.18;100.00;60484.78;5068341;28;20040;-64
2023/02/18 03:43:12;;;;;;;13.90;2.67;;;;;;;-145.18;100.00;60484.78;5075315;28;20485;-63
2023/02/18 03:45:38;;;;;;;12.37;2.70;;;;;;;-145.18;100.00;60484.78;5073998;28;20036;-64
2023/02/18 03:48:04;;;;;;;12.53;3.00;;;;;;;-145.18;100.00;60484.78;5075046;28;20075;-64
2023/02/18 03:50:29;;;;;;;17.60;4.07;;;;;;;-145.18;100.00;60484.78;5074197;28;20032;-64
2023/02/18 03:52:54;;;;;;;19.73;3.77;;;;;;;-145.18;100.00;60484.78;5078060;28;20024;-64
2023/02/18 03:55:20;;;;;;;16.90;3.90;;;;;;;-145.18;100.00;60484.78;5074431;28;20387;-67
2023/02/18 03:57:45;;;;;;;20.93;3.97;;;;;;;-145.18;100.00;60484.78;5075146;28;20042;-67
2023/02/18 04:00:11;;;;;;;16.50;4.50;;;;;;;-145.18;100.00;60484.78;5073838;28;20017;-68
2023/02/18 04:02:37;;;;;;;24.63;6.83;;;;;;;-145.18;100.00;60484.78;5074270;28;20086;-68
2023/02/18 04:05:02;;;;;;;23.43;5.80;;;;;;;-145.18;100.00;60484.78;5074544;28;20068;-68
2023/02/18 04:07:27;;;;;;;25.87;6.43;;;;;;;-145.18;100.00;60484.78;5073748;28;20161;-68
2023/02/18 04:09:53;;;;;;;22.43;5.70;;;;;;;-145.18;100.00;60484.78;5066515;28;20033;-68
2023/02/18 04:12:18;;;;;;;26.07;7.63;;;;;;;-145.18;100.00;60484.78;5073406;28;20017;-68
2023/02/18 04:14:44;;;;;;;26.40;7.50;;;;;;;-145.18;100.00;60484.78;5074963;28;20020;-68
2023/02/18 04:17:09;;;;;;;29.83;8.90;;;;;;;-145.18;100.00;60484.78;5071197;28;20025;-68
2023/02/18 04:19:34;;;;;;;37.63;9.77;;;;;;;-145.18;100.00;60484.78;5073912;28;20480;-68
2023/02/18 04:22:00;;;;;;;30.60;10.97;;;;;;;-145.18;100.00;60484.78;5075508;28;20028;-67
2023/02/18 04:24:26;;;;;;;29.37;10.40;;;;;;;-145.18;100.00;60484.78;5075283;28;20071;-68
2023/02/18 04:26:51;;;;;;;33.63;10.17;;;;;;;-145.18;100.00;60484.78;5073745;28;20056;-68
2023/02/18 04:29:16;;;;;;;41.70;11.50;;;;;;;-145.18;100.00;60484.78;5074480;28;20115;-68
2023/02/18 04:31:42;;;;;;;34.33;10.23;;;;;;;-145.18;100.00;60484.78;5074145;28;20036;-68
2023/02/18 04:34:07;;;;;;;30.37;9.40;;;;;;;-145.18;100.00;60484.78;5078837;28;20475;-67
2023/02/18 04:36:33;;;;;;;33.47;8.53;;;;;;;-145.18;100.00;60484.78;5070865;28;20081;-68
2023/02/18 04:38:58;;;;;;;31.33;9.30;;;;;;;-145.18;100.00;60484.78;5077089;28;20483;-68
2023/02/18 04:41:24;;;;;;;31.00;9.60;;;;;;;-145.18;100.00;60484.78;5056608;28;20792;-68
2023/02/18 04:43:49;;;;;;;35.43;9.27;;;;;;;-145.18;100.00;60484.78;5066149;28;20040;-68
2023/02/18 04:46:15;;;;;;;34.10;10.63;;;;;;;-145.18;100.00;60484.78;5070839;28;20089;-68
2023/02/18 04:48:40;;;;;;;40.63;11.13;;;;;;;-145.18;100.00;60484.78;5073067;28;20025;-68
2023/02/18 04:51:06;;;;;;;45.07;12.93;;;;;;;-145.18;100.00;60484.78;5073544;28;20032;-68
2023/02/18 04:53:32;;;;;;;39.47;12.43;;;;;;;-145.18;100.00;60484.78;5073569;28;20486;-68
2023/02/18 04:55:58;;;;;;;50.00;14.93;;;;;;;-145.18;100.00;60484.78;5072363;28;20112;-68
2023/02/18 04:58:23;;;;;;;43.17;14.17;;;;;;;-145.18;100.00;60484.78;5072977;28;20027;-68
2023/02/18 05:00:49;;;;;;;55.53;16.00;;;;;;;-145.18;100.00;60484.78;5074256;28;20456;-68
2023/02/18 05:03:14;;;;;;;46.80;14.90;;;;;;;-145.18;100.00;60484.78;5073581;28;20031;-68
2023/02/18 05:05:40;;;;;;;52.47;15.53;;;;;;;-145.18;100.00;60484.78;5070628;28;20033;-68
2023/02/18 05:08:07;;;;;;;76.60;18.10;;;;;;;-145.18;100.00;60484.78;5073111;28;20036;-68
2023/02/18 05:10:33;;;;;;;58.50;17.47;;;;;;;-145.18;100.00;60484.78;5071805;28;20024;-68
2023/02/18 05:12:58;;;;;;;59.50;16.80;;;;;;;-145.18;100.00;60484.78;5073237;28;20044;-68
2023/02/18 05:15:24;;;;;;;64.97;18.13;;;;;;;-145.18;100.00;60484.78;5071373;28;20048;-67
2023/02/18 05:17:49;;;;;;;89.77;21.07;;;;;;;-145.18;100.00;60484.78;5073242;28;20027;-68
2023/02/18 05:20:15;;;;;;;94.07;25.97;;;;;;;-145.18;100.00;60484.78;5073741;28;20025;-68
2023/02/18 05:22:40;;;;;;;108.30;27.23;;;;;;;-145.18;100.00;60484.78;5072660;28;20052;-69
2023/02/18 05:25:06;;;;;;;112.17;29.33;;;;;;;-145.18;100.00;60484.78;5072278;28;20063;-68
2023/02/18 05:27:32;;;;;;;125.43;29.77;;;;;;;-145.18;100.00;60484.78;5071778;28;20169;-68
2023/02/18 05:29:57;;;;;;;130.43;30.63;;;;;;;-145.18;100.00;60484.78;5073206;28;20028;-68
2023/02/18 05:32:23;;;;;;;135.83;31.73;;;;;;;-145.18;100.00;60484.78;5071247;28;20025;-68
2023/02/18 05:34:48;;;;;;;140.70;33.37;;;;;;;-145.18;100.00;60484.78;5072023;28;20021;-68
2023/02/18 05:37:14;;;;;;;135.60;34.33;;;;;;;-145.18;100.00;60484.78;5071780;28;20033;-68
2023/02/18 05:39:40;;;;;;;151.10;32.87;;;;;;;-145.18;100.00;60484.78;5073249;28;20372;-68
2023/02/18 05:42:06;;;;;;;142.97;31.63;;;;;;;-145.18;100.00;60484.78;5071977;28;20025;-68
2023/02/18 05:44:32;;;;;;;147.77;33.97;;;;;;;-145.18;100.00;60484.78;5071394;28;20021;-68
2023/02/18 05:47:02;;;;;;;145.33;33.33;;;;;;;-145.18;100.00;60484.78;5072993;28;20077;-68
2023/02/18 05:49:29;;;;;;;146.50;34.53;;;;;;;-145.18;100.00;60484.78;5072987;28;20024;-68
2023/02/18 05:51:55;;;;;;;164.27;36.00;;;;;;;-145.18;100.00;60484.78;5071842;28;20024;-68
2023/02/18 05:54:20;;;;;;;162.07;35.43;;;;;;;-145.18;100.00;60484.78;5072665;28;20029;-68
2023/02/18 05:56:46;;;;;;;173.87;36.33;;;;;;;-145.18;100.00;60484.78;5071735;28;20024;-68
2023/02/18 05:59:12;;;;;;;196.73;38.17;;;;;;;-145.18;100.00;60484.78;5072279;28;20066;-68
2023/02/18 06:01:38;;;;;;;196.67;36.87;;;;;;;-145.18;100.00;60484.78;5071762;28;20467;-68
2023/02/18 06:04:03;;;;;;;190.37;37.73;;;;;;;-145.18;100.00;60484.78;5071883;28;20763;-68
2023/02/18 06:06:29;;;;;;;199.73;39.43;;;;;;;-145.18;100.00;60484.78;5072557;28;20029;-68
2023/02/18 06:08:54;;;;;;;216.43;37.73;;;;;;;-145.18;100.00;60484.78;5071937;28;20028;-68
2023/02/18 06:11:20;;;;;;;208.10;38.27;;;;;;;-145.18;100.00;60484.78;5071597;28;20024;-68
2023/02/18 06:13:45;;;;;;;251.77;39.70;;;;;;;-145.18;100.00;60484.78;5053686;28;20035;-68
2023/02/18 06:16:11;;;;;;;243.70;39.20;;;;;;;-145.18;100.00;60484.78;5071894;28;20090;-68
2023/02/18 06:18:36;;;;;;;267.03;38.30;;;;;;;-145.18;100.00;60484.78;5072369;28;20028;-68
2023/02/18 06:21:02;;;;;;;386.17;43.40;;;;;;;-145.18;100.00;60484.78;5070493;28;20032;-68
2023/02/18 06:23:27;;;;;;;272.40;41.67;;;;;;;-145.18;100.00;60484.78;5069395;28;20032;-68
2023/02/18 06:25:52;;;;;;;295.03;40.60;;;;;;;-145.18;100.00;60484.78;5070964;28;20099;-68
2023/02/18 06:28:18;;;;;;;284.07;39.47;;;;;;;-145.18;100.00;60484.78;5072069;28;20086;-68
2023/02/18 06:30:45;;;;;;;249.93;38.23;;;;;;;-145.18;100.00;60484.78;5071105;28;20476;-68
2023/02/18 06:33:10;;;;;;;218.47;38.33;;;;;;;-145.18;100.00;60484.78;5071119;28;20435;-68
2023/02/18 06:35:35;;;;;;;222.33;37.63;;;;;;;-145.18;100.00;60484.78;5071790;28;20116;-68
2023/02/18 06:38:01;;;;;;;198.57;35.93;;;;;;;-145.18;100.00;60484.78;5071584;28;20024;-68
2023/02/18 06:40:26;;;;;;;204.90;38.03;;;;;;;-145.18;100.00;60484.78;5068542;28;20075;-68
2023/02/18 06:42:52;;;;;;;210.63;38.93;;;;;;;-145.18;100.00;60484.78;5070138;28;20036;-68
2023/02/18 06:45:17;;;;;;;227.57;39.93;;;;;;;-145.18;100.00;60484.78;5072090;28;20060;-68
2023/02/18 06:47:43;;;;;;;205.13;35.43;;;;;;;-145.18;100.00;60484.78;5071605;28;20032;-68
2023/02/18 06:50:09;;;;;;;202.20;35.97;;;;;;;-145.18;100.00;60484.78;5071884;28;20055;-68
2023/02/18 06:52:36;;;;;;;205.10;35.70;;;;;;;-145.18;100.00;60484.78;5070152;28;20031;-68
2023/02/18 06:55:06;;;;;;;172.00;32.20;;;;;;;-145.18;100.00;60484.78;5070232;28;20185;-68
2023/02/18 06:57:31;;;;;;;171.90;31.27;;;;;;;-145.18;100.00;60484.78;5070970;28;20566;-68
2023/02/18 06:59:57;;;;;;;162.60;29.87;;;;;;;-145.18;100.00;60484.78;5071074;28;20024;-68
2023/02/18 07:02:22;;;;;;;164.83;30.83;;;;;;;-145.18;100.00;60484.78;5071590;28;20019;-68
2023/02/18 07:04:47;;;;;;;154.50;30.00;;;;;;;-145.18;100.00;60484.78;5069367;28;20025;-68
2023/02/18 07:07:13;;;;;;;146.23;28.53;;;;;;;-145.18;100.00;60484.78;5071752;28;20020;-68
2023/02/18 07:09:38;;;;;;;148.23;28.80;;;;;;;-145.18;100.00;60484.78;5071000;28;20028;-68
2023/02/18 07:12:04;;;;;;;136.07;27.33;;;;;;;-145.18;100.00;60484.78;5070792;28;20047;-68
2023/02/18 07:14:29;;;;;;;114.90;25.57;;;;;;;-145.18;100.00;60484.78;5068404;28;20608;-68
2023/02/18 07:16:55;;;;;;;97.60;22.53;;;;;;;-145.18;100.00;60484.78;5071577;28;20153;-68
2023/02/18 07:19:20;;;;;;;102.97;24.20;;;;;;;-145.18;100.00;60484.78;5071788;28;20024;-68
2023/02/18 07:21:46;;;;;;;113.43;25.97;;;;;;;-145.18;100.00;60484.78;5071627;28;20021;-68
2023/02/18 07:24:11;;;;;;;78.43;20.33;;;;;;;-145.18;100.00;60484.78;5070133;28;20594;-68
2023/02/18 07:26:36;;;;;;;69.57;18.00;;;;;;;-145.18;100.00;60484.78;5069749;28;20024;-68
2023/02/18 07:29:02;;;;;;;75.97;19.97;;;;;;;-145.18;100.00;60484.78;5071627;28;20483;-68
2023/02/18 07:31:27;;;;;;;67.50;15.67;;;;;;;-145.18;100.00;60484.78;5071646;28;20489;-68
2023/02/18 07:33:53;;;;;;;58.63;15.17;;;;;;;-145.18;100.00;60484.78;5071643;28;20024;-68
2023/02/18 07:36:18;;;;;;;53.73;13.23;;;;;;;-145.18;100.00;60484.78;5068970;28;20476;-68
2023/02/18 07:38:43;;;;;;;51.03;14.93;;;;;;;-145.18;100.00;60484.78;5071027;28;20052;-68
2023/02/18 07:41:18;;;;;;;48.73;11.97;;;;;;;-145.18;100.00;60484.78;5070588;28;20032;-68
2023/02/18 07:43:44;;;;;;;26.90;7.53;;;;;;;-145.18;100.00;60484.78;5070430;28;20496;-66
2023/02/18 07:46:09;;;;;;;39.57;10.70;;;;;;;-145.18;100.00;60484.78;5071029;28;20123;-66
2023/02/18 07:48:35;;;;;;;36.50;9.73;;;;;;;-145.18;100.00;60484.78;5071566;28;20426;-66
2023/02/18 07:51:04;;;;;;;26.30;7.10;;;;;;;-145.18;100.00;60484.78;5071168;28;20025;-66
2023/02/18 07:53:29;;;;;;;20.90;6.20;;;;;;;-145.18;100.00;60484.78;5069454;28;20040;-66
2023/02/18 07:55:59;;;;;;;22.60;6.57;;;;;;;-145.18;100.00;60484.78;5069873;28;20032;-66
2023/02/18 07:58:27;;;;;;;20.90;6.87;;;;;;;-145.18;100.00;60484.78;5071183;28;20082;-67
2023/02/18 08:00:54;;;;;;;16.03;4.57;;;;;;;-145.18;100.00;60484.78;5068517;28;20028;-67
2023/02/18 08:03:22;;;;;;;15.77;5.63;;;;;;;-145.18;100.00;60484.78;5071026;28;20444;-67
2023/02/18 08:05:48;;;;;;;17.80;6.00;;;;;;;-145.18;100.00;60484.78;5069612;28;20392;-68
2023/02/18 08:08:17;;;;;;;13.63;4.37;;;;;;;-145.18;100.00;60484.78;5070946;28;20032;-67
2023/02/18 08:10:42;;;;;;;11.03;3.50;;;;;;;-145.18;100.00;60484.78;5069026;28;20020;-66
2023/02/18 08:13:09;;;;;;;10.53;4.03;;;;;;;-145.18;100.00;60484.78;5070705;28;20024;-66
2023/02/18 08:15:34;;;;;;;7.97;3.10;;;;;;;-145.18;100.00;60484.78;5069922;28;20391;-67
2023/02/18 08:18:00;;;;;;;8.20;3.10;;;;;;;-145.18;100.00;60484.78;5069170;28;20028;-67
2023/02/18 08:20:26;;;;;;;6.77;2.77;;;;;;;-145.18;100.00;60484.78;5071127;28;20042;-67
2023/02/18 08:22:52;;;;;;;9.07;3.60;;;;;;;-145.18;100.00;60484.78;5073572;28;20024;-67
2023/02/18 08:25:17;;;;;;;7.50;3.30;;;;;;;-145.18;100.00;60484.78;5073540;28;20391;-67
2023/02/18 08:27:43;;;;;;;7.63;3.00;;;;;;;-145.18;100.00;60484.78;5070035;28;20480;-66
2023/02/18 08:30:09;;;;;;;6.83;2.50;;;;;;;-145.18;100.00;60484.78;5069976;28;20042;-67
2023/02/18 08:32:34;;;;;;;7.60;3.57;;;;;;;-145.18;100.00;60484.78;5072542;28;20027;-67
2023/02/18 08:35:00;;;;;;;4.17;1.83;;;;;;;-145.18;100.00;60484.78;5074204;28;20024;-66
2023/02/18 08:37:25;;;;;;;6.73;2.17;;;;;;;-145.18;100.00;60484.78;5073180;28;20031;-67
2023/02/18 08:39:51;;;;;;;7.00;3.00;;;;;;;-145.18;100.00;60484.78;5073405;28;20024;-67
2023/02/18 08:42:16;;;;;;;5.80;2.43;;;;;;;-145.18;100.00;60484.78;5073045;28;20056;-67
2023/02/18 08:44:41;;;;;;;5.20;2.27;;;;;;;-145.18;100.00;60484.78;5074406;28;20032;-67
2023/02/18 08:47:07;;;;;;;5.23;2.30;;;;;;;-145.18;100.00;60484.78;5073935;28;20468;-67
2023/02/18 08:49:32;;;;;;;6.60;2.40;;;;;;;-145.18;100.00;60484.78;5072684;28;20035;-66
2023/02/18 08:51:58;;;;;;;7.17;3.03;;;;;;;-145.18;100.00;60484.78;5073782;28;20433;-67
2023/02/18 08:54:23;;;;;;;5.57;2.77;;;;;;;-145.18;100.00;60484.78;5072083;28;20147;-66
2023/02/18 08:56:48;;;;;;;4.37;2.20;;;;;;;-145.18;100.00;60484.78;5072066;28;20024;-66
2023/02/18 08:59:14;;;;;;;4.30;1.93;;;;;;;-145.18;100.00;60484.78;5073394;28;20027;-66
2023/02/18 09:01:39;;;;;;;6.37;2.60;;;;;;;-145.18;100.00;60484.78;5073147;28;20096;-67
2023/02/18 09:04:05;;;;;;;4.47;1.80;;;;;;;-145.18;100.00;60484.78;5072937;28;20519;-67
2023/02/18 09:06:30;;;;;;;3.53;1.80;;;;;;;-145.18;100.00;60484.78;5072906;28;20115;-67
2023/02/18 09:08:56;;;;;;;5.83;2.77;;;;;;;-145.18;100.00;60484.78;5073680;28;20467;-66
2023/02/18 09:11:21;;;;;;;3.50;1.40;;;;;;;-145.18;100.00;60484.78;5072358;28;20513;-66
2023/02/18 09:13:46;;;;;;;3.93;1.70;;;;;;;-145.18;100.00;60484.78;5072009;28;20033;-66
2023/02/18 09:16:17;;;;;;;5.03;2.40;;;;;;;-145.18;100.00;60484.78;5073496;28;20107;-67
2023/02/18 09:18:43;;;;;;;6.40;1.70;;;;;;;-145.18;100.00;60484.78;5071392;28;20112;-66
2023/02/18 09:21:11;;;;;;;5.03;2.73;;;;;;;-145.18;100.00;60484.78;5073113;28;20035;-68
2023/02/18 09:23:36;;;;;;;6.93;2.80;;;;;;;-145.18;100.00;60484.78;5073169;28;20024;-68
2023/02/18 09:26:13;;;;;;;7.13;2.93;;;;;;;-145.18;100.00;60484.78;5071450;28;20028;-67
2023/02/18 09:28:39;;;;;;;5.30;3.20;;;;;;;-145.18;100.00;60484.78;5071178;28;20048;-67
2023/02/18 09:31:15;;;;;;;6.50;3.00;;;;;;;-145.18;100.00;60484.78;5071850;28;20035;-67
2023/02/18 09:33:43;;;;;;;7.60;3.50;;;;;;;-145.18;100.00;60484.78;5072445;28;20372;-67
2023/02/18 09:36:08;;;;;;;9.57;3.47;;;;;;;-145.18;100.00;60484.78;5073088;28;20154;-67
2023/02/18 09:38:34;;;;;;;5.00;2.50;;;;;;;-145.18;100.00;60484.78;5071995;28;20483;-66
2023/02/18 09:41:03;;;;;;;5.37;2.13;;;;;;;-145.18;100.00;60484.78;5070084;28;20028;-68
2023/02/18 09:43:47;;;;;;;4.37;2.13;;;;;;;-145.18;100.00;60484.78;5071233;28;20021;-68
2023/02/18 09:46:40;;;;;;;10.53;3.80;;;;;;;-145.18;100.00;60484.78;5072512;28;20033;-67
2023/02/18 09:49:13;;;;;;;6.03;2.63;;;;;;;-145.18;100.00;60484.78;5068390;28;20040;-67
2023/02/18 09:51:39;;;;;;;9.10;4.00;;;;;;;-145.18;100.00;60484.78;5072363;28;20495;-68
2023/02/18 09:54:04;;;;;;;6.27;3.43;;;;;;;-145.18;100.00;60484.78;5072463;28;20017;-68
2023/02/18 09:56:34;;;;;;;9.57;4.00;;;;;;;-145.18;100.00;60484.78;5072106;28;20029;-67
2023/02/18 09:59:03;;;;;;;9.97;4.20;;;;;;;-145.18;100.00;60484.78;5071993;28;20077;-68
2023/02/18 10:01:36;;;;;;;6.40;3.40;;;;;;;-145.18;100.00;60484.78;5068985;28;20097;-68
2023/02/18 10:04:17;;;;;;;7.63;3.07;;;;;;;-145.18;100.00;60484.78;5072160;28;20043;-67
2023/02/18 10:06:46;;;;;;;7.82;3.80;;;;;;;-145.18;100.00;60484.78;5068818;28;20107;-67
2023/02/18 10:09:15;;;;;;;9.57;4.23;;;;;;;-145.18;100.00;60484.78;5071109;28;20421;-67
2023/02/18 10:11:45;;;;;;;9.43;4.50;;;;;;;-145.18;100.00;60484.78;5071405;28;20384;-68
2023/02/18 10:14:14;;;;;;;9.57;5.03;;;;;;;-145.18;100.00;60484.78;5072602;28;20024;-67
2023/02/18 10:16:39;;;;;;;7.40;3.50;;;;;;;-145.18;100.00;60484.78;5069154;28;20085;-67
2023/02/18 10:19:19;;;;;;;9.97;4.60;;;;;;;-145.18;100.00;60484.78;5072580;28;20104;-67
2023/02/18 10:21:46;;;;;;;9.63;3.87;;;;;;;-145.18;100.00;60484.78;5072443;28;20097;-66
2023/02/18 10:24:28;;;;;;;9.70;4.57;;;;;;;-145.18;100.00;60484.78;5072253;28;20105;-68
2023/02/18 10:26:54;;;;;;;8.82;3.85;;;;;;;-145.18;100.00;60484.78;5068104;28;20024;-67
2023/02/18 10:29:20;;;;;;;11.20;5.10;;;;;;;-145.18;100.00;60484.78;5072333;28;20464;-67
2023/02/18 10:32:11;;;;;;;6.70;3.07;;;;;;;-145.18;100.00;60484.78;5072350;28;20476;-67
2023/02/18 10:34:41;;;;;;;10.33;5.17;;;;;;;-145.18;100.00;60484.78;5071084;28;20057;-67
2023/02/18 10:37:20;;;;;;;10.00;3.67;;;;;;;-145.18;100.00;60484.78;5072277;28;20387;-67
2023/02/18 10:40:00;;;;;;;11.57;5.43;;;;;;;-145.18;100.00;60484.78;5070104;28;20036;-67
2023/02/18 10:42:46;;;;;;;10.17;4.80;;;;;;;-145.18;100.00;60484.78;5071054;28;20033;-67
2023/02/18 10:45:14;;;;;;;7.63;3.60;;;;;;;-145.18;100.00;60484.78;5052022;28;20435;-67
2023/02/18 10:47:58;;;;;;;5.87;2.90;;;;;;;-145.18;100.00;60484.78;5060422;28;20034;-67
2023/02/18 10:50:31;;;;;;;7.53;3.67;;;;;;;-145.18;100.00;60484.78;5072207;28;20043;-66
2023/02/18 10:53:01;;;;;;;5.93;3.13;;;;;;;-145.18;100.00;60484.78;5070150;28;20361;-67
2023/02/18 10:55:41;;;;;;;6.27;2.97;;;;;;;-145.18;100.00;60484.78;5069310;28;20055;-67
2023/02/18 10:58:25;;;;;;;9.03;4.20;;;;;;;-145.18;100.00;60484.78;5070004;28;20048;-68
2023/02/18 11:00:50;;;;;;;6.40;2.63;;;;;;;-145.18;100.00;60484.78;5071976;28;20047;-67
2023/02/18 11:03:21;;;;;;;5.70;3.17;;;;;;;-145.18;100.00;60484.78;5071608;28;20033;-68
2023/02/18 11:05:50;;;;;;;7.47;3.58;;;;;;;-145.18;100.00;60484.78;5067413;28;20029;-67
2023/02/18 11:08:27;;;;;;;5.67;3.03;;;;;;;-145.18;100.00;60484.78;5071635;28;20038;-67